Time;durP1;ratioP1;P1;durP2;ratioP2;P2;SDS_P1;SDS_P2;PMS_P1;PMS_P2;Temp;Humidity;BMP_temperature;BMP_pressure;BME280_temperature;BME280_humidity;BME280_pressure;Samples;Min_cycle;Max_cycle;Signal;HPM_P1;HPM_P2
2023/03/03 00:00:48;;;;;;;16.20;9.20;;;;;;;1.01;100.00;100409.00;105835;1256;76495;-58
2023/03/03 00:03:19;;;;;;;16.40;8.80;;;;;;;1.02;100.00;100404.84;105279;1260;69070;-55
2023/03/03 00:05:49;;;;;;;13.30;9.30;;;;;;;1.03;100.00;100401.00;105877;1259;73270;-58
2023/03/03 00:08:18;;;;;;;18.30;9.80;;;;;;;1.04;100.00;100394.98;105496;1257;61292;-56
2023/03/03 00:10:49;;;;;;;18.70;10.40;;;;;;;1.04;100.00;100393.23;105731;1257;61679;-56
2023/03/03 00:13:24;;;;;;;19.80;10.50;;;;;;;1.04;100.00;100394.58;105541;1256;75977;-56
2023/03/03 00:15:53;;;;;;;12.90;8.00;;;;;;;1.04;100.00;100389.47;105443;1270;69301;-55
2023/03/03 00:18:32;;;;;;;15.70;9.20;;;;;;;1.04;100.00;100385.15;105523;1260;74165;-56
2023/03/03 00:21:02;;;;;;;15.60;9.20;;;;;;;1.05;100.00;100384.77;105621;1257;61116;-55
2023/03/03 00:23:39;;;;;;;19.00;9.30;;;;;;;1.05;100.00;100381.83;105663;1256;62157;-55
2023/03/03 00:26:22;;;;;;;13.80;8.50;;;;;;;1.05;100.00;100379.99;105316;1257;76239;-57
2023/03/03 00:28:51;;;;;;;15.60;8.20;;;;;;;1.06;100.00;100378.20;105725;1256;68761;-57
2023/03/03 00:31:29;;;;;;;15.00;8.20;;;;;;;1.09;100.00;100374.69;105623;1255;74009;-54
2023/03/03 00:34:15;;;;;;;17.30;8.20;;;;;;;1.10;100.00;100370.86;105485;1257;61520;-55
2023/03/03 00:36:45;;;;;;;16.00;7.70;;;;;;;1.10;100.00;100369.64;105322;1260;60163;-55
2023/03/03 00:39:34;;;;;;;15.80;8.30;;;;;;;1.10;100.00;100367.73;105667;1258;76084;-54
2023/03/03 00:42:15;;;;;;;12.40;7.00;;;;;;;1.10;100.00;100363.83;105279;1262;68727;-57
2023/03/03 00:44:48;;;;;;;12.40;8.10;;;;;;;1.10;100.00;100367.39;105486;1261;74322;-55
2023/03/03 00:47:52;;;;;;;10.50;6.80;;;;;;;1.11;100.00;100361.21;105655;1256;61298;-55
2023/03/03 00:50:34;;;;;;;13.50;7.30;;;;;;;1.10;100.00;100358.51;105152;1264;62165;-55
2023/03/03 00:53:04;;;;;;;14.20;7.40;;;;;;;1.11;100.00;100354.35;105578;1257;75214;-54
2023/03/03 00:55:33;;;;;;;15.30;8.20;;;;;;;1.12;100.00;100350.02;105581;1256;67209;-54
2023/03/03 00:58:02;;;;;;;11.80;7.40;;;;;;;1.13;100.00;100346.66;105579;1256;74149;-55
2023/03/03 01:00:34;;;;;;;15.90;7.70;;;;;;;1.15;100.00;100344.64;105208;1257;61353;-55
2023/03/03 01:03:06;;;;;;;15.40;8.60;;;;;;;1.16;100.00;100340.61;105435;1256;61320;-55
2023/03/03 01:05:35;;;;;;;;;;;;;;;1.17;100.00;100336.92;105348;1256;75516;-55
2023/03/03 01:08:04;;;;;;;11.40;6.60;;;;;;;1.16;100.00;100337.36;105625;1256;68444;-58
2023/03/03 01:10:50;;;;;;;13.10;7.30;;;;;;;1.14;100.00;100334.21;105067;1261;73229;-56
2023/03/03 01:13:21;;;;;;;12.60;7.00;;;;;;;1.14;100.00;100337.18;105442;1256;61328;-55
2023/03/03 01:15:49;;;;;;;13.90;6.90;;;;;;;1.14;100.00;100339.07;105497;1257;61254;-56
2023/03/03 01:18:18;;;;;;;13.90;7.40;;;;;;;1.15;100.00;100336.73;105483;1256;76002;-55
2023/03/03 01:20:47;;;;;;;13.40;6.70;;;;;;;1.17;100.00;100337.91;105504;1256;69119;-56
2023/03/03 01:23:18;;;;;;;13.40;7.10;;;;;;;1.16;100.00;100334.09;105465;1260;74441;-56
2023/03/03 01:25:48;;;;;;;15.70;7.60;;;;;;;1.15;100.00;100335.66;105453;1257;62712;-54
2023/03/03 01:28:17;;;;;;;12.80;7.00;;;;;;;1.16;100.00;100334.79;105359;1256;61336;-54
2023/03/03 01:30:46;;;;;;;14.30;7.30;;;;;;;1.15;100.00;100340.30;105724;1256;75182;-55
2023/03/03 01:33:16;;;;;;;13.10;6.80;;;;;;;1.15;100.00;100335.87;105530;1260;68359;-55
2023/03/03 01:35:49;;;;;;;13.70;7.70;;;;;;;1.15;100.00;100336.73;105340;1257;74444;-55
2023/03/03 01:38:19;;;;;;;11.60;6.70;;;;;;;1.13;100.00;100338.74;105557;1257;61314;-55
2023/03/03 01:40:58;;;;;;;14.40;7.20;;;;;;;1.11;100.00;100347.16;105435;1257;61843;-55
2023/03/03 01:43:29;;;;;;;14.20;8.40;;;;;;;1.09;100.00;100346.67;105364;1256;76748;-56
2023/03/03 01:45:58;;;;;;;14.00;7.90;;;;;;;1.07;100.00;100343.33;105389;1257;67639;-56
2023/03/03 01:48:38;;;;;;;16.10;8.40;;;;;;;1.05;100.00;100346.27;105570;1256;73023;-56
2023/03/03 01:51:48;;;;;;;13.70;7.90;;;;;;;1.03;100.00;100340.91;105340;1257;62822;-56
2023/03/03 01:54:23;;;;;;;13.60;7.90;;;;;;;0.97;100.00;100337.13;105316;1261;61865;-57
2023/03/03 01:56:51;;;;;;;16.10;9.30;;;;;;;0.92;100.00;100333.39;105123;1257;76520;-55
2023/03/03 01:59:23;;;;;;;16.80;7.80;;;;;;;0.87;100.00;100336.20;105378;1256;67417;-56
2023/03/03 02:01:52;;;;;;;15.50;7.80;;;;;;;0.79;100.00;100339.54;105221;1260;74308;-56
2023/03/03 02:04:25;;;;;;;15.10;7.70;;;;;;;0.71;100.00;100338.46;105563;1257;62588;-57
2023/03/03 02:06:57;;;;;;;16.80;8.00;;;;;;;0.61;100.00;100336.98;105397;1259;61240;-56
2023/03/03 02:10:25;;;;;;;18.50;8.70;;;;;;;0.50;100.00;100338.20;105254;1262;75049;-55
2023/03/03 02:12:56;;;;;;;16.50;8.60;;;;;;;0.33;100.00;100334.99;105632;1256;68107;-56
2023/03/03 02:15:26;;;;;;;19.50;9.10;;;;;;;0.19;100.00;100335.89;105529;1259;72985;-57
2023/03/03 02:17:56;;;;;;;13.90;7.80;;;;;;;0.05;100.00;100336.26;105400;1260;61382;-56
2023/03/03 02:20:44;;;;;;;16.70;9.60;;;;;;;-0.09;100.00;100333.89;105575;1259;60585;-56
2023/03/03 02:23:26;;;;;;;15.30;8.00;;;;;;;-0.23;100.00;100330.58;105325;1260;76515;-56
2023/03/03 02:25:59;;;;;;;16.70;8.10;;;;;;;-0.34;100.00;100327.83;105712;1259;67800;-57
2023/03/03 02:28:29;;;;;;;13.10;7.50;;;;;;;-0.44;100.00;100327.54;105361;1257;74233;-54
2023/03/03 02:30:59;;;;;;;15.60;7.10;;;;;;;-0.55;100.00;100327.26;105517;1260;60787;-54
2023/03/03 02:33:29;;;;;;;15.00;7.30;;;;;;;-0.64;100.00;100325.20;105469;1258;61323;-55
2023/03/03 02:35:58;;;;;;;14.60;7.50;;;;;;;-0.71;100.00;100323.30;105312;1257;75972;-54
2023/03/03 02:38:41;;;;;;;13.70;7.10;;;;;;;-0.79;100.00;100323.04;105302;1257;68920;-54
2023/03/03 02:41:21;;;;;;;16.90;6.60;;;;;;;-0.87;100.00;100321.84;105528;1259;74570;-54
2023/03/03 02:44:01;;;;;;;11.50;6.10;;;;;;;-0.92;100.00;100325.46;105558;1259;61254;-57
2023/03/03 02:46:35;;;;;;;12.00;6.00;;;;;;;-0.99;100.00;100327.63;105579;1257;61180;-57
2023/03/03 02:49:04;;;;;;;15.20;7.00;;;;;;;-1.04;100.00;100327.52;105823;1256;76413;-57
2023/03/03 02:51:33;;;;;;;12.80;6.80;;;;;;;-1.09;100.00;100323.08;105391;1272;69230;-55
2023/03/03 02:54:01;;;;;;;13.50;6.60;;;;;;;-1.14;100.00;100325.80;105477;1260;72975;-54
2023/03/03 02:56:31;;;;;;;13.40;5.60;;;;;;;-1.18;100.00;100326.14;105656;1260;61241;-55
2023/03/03 02:59:00;;;;;;;10.50;5.70;;;;;;;-1.25;100.00;100322.46;105618;1259;61221;-57
2023/03/03 03:01:35;;;;;;;14.60;6.30;;;;;;;-1.28;100.00;100323.20;105279;1257;74908;-54
2023/03/03 03:04:07;;;;;;;13.40;6.70;;;;;;;-1.34;100.00;100319.73;105389;1259;68558;-54
2023/03/03 03:06:37;;;;;;;11.40;5.70;;;;;;;-1.40;100.00;100317.23;104911;1262;72896;-58
2023/03/03 03:09:08;;;;;;;14.10;6.40;;;;;;;-1.47;100.00;100315.79;105222;1261;61408;-55
2023/03/03 03:11:37;;;;;;;11.70;6.40;;;;;;;-1.52;100.00;100315.10;105373;1257;61235;-55
2023/03/03 03:14:09;;;;;;;13.20;6.00;;;;;;;-1.59;100.00;100316.61;105628;1257;75959;-58
2023/03/03 03:16:39;;;;;;;14.10;7.20;;;;;;;-1.65;100.00;100318.21;105605;1260;67631;-54
2023/03/03 03:19:07;;;;;;;13.10;6.80;;;;;;;-1.74;100.00;100313.33;105611;1256;74623;-53
2023/03/03 03:21:37;;;;;;;10.60;5.80;;;;;;;-1.81;100.00;100310.41;105597;1257;61161;-53
2023/03/03 03:24:06;;;;;;;11.70;5.80;;;;;;;-1.85;100.00;100305.09;105295;1258;61955;-56
2023/03/03 03:26:35;;;;;;;13.00;6.70;;;;;;;-1.89;100.00;100301.57;105348;1257;74266;-55
2023/03/03 03:29:06;;;;;;;12.60;6.50;;;;;;;-1.91;100.00;100303.25;105201;1257;68980;-55
2023/03/03 03:31:35;;;;;;;13.30;7.10;;;;;;;-1.94;100.00;100301.91;105242;1255;74161;-59
2023/03/03 03:34:03;;;;;;;11.50;6.30;;;;;;;-1.96;100.00;100297.95;105488;1257;62014;-55
2023/03/03 03:36:32;;;;;;;12.90;7.10;;;;;;;-1.98;100.00;100300.00;105563;1256;61941;-55
2023/03/03 03:39:21;;;;;;;14.00;6.00;;;;;;;-1.99;100.00;100302.41;105398;1257;76076;-56
2023/03/03 03:41:52;;;;;;;15.80;6.40;;;;;;;-2.01;100.00;100290.45;105459;1256;68590;-54
2023/03/03 03:44:22;;;;;;;12.40;6.50;;;;;;;-2.04;100.00;100293.05;105698;1256;74179;-57
2023/03/03 03:46:51;;;;;;;15.80;7.40;;;;;;;-2.04;100.00;100289.66;105662;1257;61977;-56
2023/03/03 03:49:20;;;;;;;14.20;6.20;;;;;;;-2.05;100.00;100295.69;105435;1255;61952;-56
2023/03/03 03:51:50;;;;;;;13.30;6.10;;;;;;;-2.06;100.00;100292.70;105378;1257;76112;-55
2023/03/03 03:54:20;;;;;;;11.70;6.60;;;;;;;-2.08;100.00;100290.23;105744;1256;68448;-59
2023/03/03 03:56:49;;;;;;;15.00;8.20;;;;;;;-2.07;100.00;100294.63;105493;1257;73960;-56
2023/03/03 03:59:18;;;;;;;13.40;7.70;;;;;;;-2.09;100.00;100294.54;105394;1257;62540;-59
2023/03/03 04:01:49;;;;;;;14.20;7.20;;;;;;;-2.09;100.00;100294.39;105612;1255;62866;-56
2023/03/03 04:04:18;;;;;;;12.90;6.70;;;;;;;-2.09;100.00;100299.49;105735;1259;76385;-57
2023/03/03 04:06:48;;;;;;;13.20;6.90;;;;;;;-2.08;100.00;100297.27;105313;1257;67558;-56
2023/03/03 04:09:16;;;;;;;12.10;6.40;;;;;;;-2.06;100.00;100295.91;105603;1259;74237;-56
2023/03/03 04:11:46;;;;;;;12.60;6.70;;;;;;;-2.03;100.00;100300.33;105387;1261;61058;-56
2023/03/03 04:14:16;;;;;;;13.80;8.10;;;;;;;-2.01;100.00;100292.85;105407;1256;61306;-57
2023/03/03 04:16:46;;;;;;;16.00;8.50;;;;;;;-1.97;100.00;100293.63;105500;1257;76060;-56
2023/03/03 04:19:15;;;;;;;16.00;7.80;;;;;;;-1.91;100.00;100292.55;105598;1259;68773;-56
2023/03/03 04:21:51;;;;;;;13.80;6.30;;;;;;;-1.76;100.00;100296.80;105378;1256;73235;-57
2023/03/03 04:24:20;;;;;;;12.70;6.50;;;;;;;-1.53;100.00;100296.42;105092;1255;61284;-54
2023/03/03 04:26:49;;;;;;;13.90;7.10;;;;;;;-1.21;100.00;100293.05;105611;1257;61557;-56
2023/03/03 04:29:19;;;;;;;13.80;6.70;;;;;;;-0.88;100.00;100293.61;105579;1259;75931;-55
2023/03/03 04:31:48;;;;;;;13.50;6.80;;;;;;;-0.52;100.00;100292.89;105567;1261;67657;-56
2023/03/03 04:34:17;;;;;;;15.90;6.50;;;;;;;-0.17;100.00;100295.32;105656;1256;73670;-56
2023/03/03 04:36:46;;;;;;;14.70;6.50;;;;;;;0.19;100.00;100290.60;105647;1258;61183;-55
2023/03/03 04:39:21;;;;;;;15.30;7.90;;;;;;;0.48;100.00;100288.93;105420;1256;61958;-55
2023/03/03 04:41:50;;;;;;;16.60;7.60;;;;;;;0.70;100.00;100293.23;105496;1259;76269;-55
2023/03/03 04:44:19;;;;;;;15.30;7.90;;;;;;;0.95;100.00;100294.90;105502;1259;67576;-55
2023/03/03 04:46:49;;;;;;;16.70;7.40;;;;;;;1.18;100.00;100296.45;105556;1259;74269;-55
2023/03/03 04:49:17;;;;;;;14.30;7.90;;;;;;;1.43;100.00;100294.11;105680;1257;61307;-58
2023/03/03 04:51:47;;;;;;;14.60;7.90;;;;;;;1.66;100.00;100288.65;105531;1259;61224;-54
2023/03/03 04:54:16;;;;;;;14.90;7.90;;;;;;;1.82;100.00;100290.58;105733;1256;76161;-55
2023/03/03 04:56:45;;;;;;;13.10;7.70;;;;;;;1.94;100.00;100289.08;105485;1257;67524;-59
2023/03/03 04:59:14;;;;;;;12.70;6.90;;;;;;;2.04;100.00;100287.59;105594;1260;73720;-56
2023/03/03 05:01:45;;;;;;;14.00;7.30;;;;;;;2.11;100.00;100284.26;105471;1256;61344;-57
2023/03/03 05:04:13;;;;;;;16.60;8.40;;;;;;;2.14;100.00;100285.88;105331;1257;61853;-57
2023/03/03 05:06:43;;;;;;;14.90;8.10;;;;;;;2.16;100.00;100280.98;105480;1256;76034;-58
2023/03/03 05:09:13;;;;;;;16.80;8.90;;;;;;;2.16;100.00;100278.00;105634;1257;67598;-57
2023/03/03 05:11:41;;;;;;;15.10;8.20;;;;;;;2.17;100.00;100273.97;105648;1259;72686;-57
2023/03/03 05:14:11;;;;;;;15.00;8.60;;;;;;;2.23;100.00;100273.33;105596;1259;61327;-57
2023/03/03 05:16:39;;;;;;;15.00;8.10;;;;;;;2.31;100.00;100271.81;105732;1259;62050;-57
2023/03/03 05:19:08;;;;;;;17.00;8.00;;;;;;;2.39;100.00;100271.83;105688;1259;76011;-60
2023/03/03 05:21:41;;;;;;;15.70;8.80;;;;;;;2.48;100.00;100270.37;105566;1259;68003;-57
2023/03/03 05:24:11;;;;;;;15.90;8.90;;;;;;;2.55;100.00;100267.34;105722;1257;74217;-55
2023/03/03 05:26:42;;;;;;;14.00;8.00;;;;;;;2.63;100.00;100264.73;105571;1255;61365;-55
2023/03/03 05:29:11;;;;;;;15.50;8.50;;;;;;;2.72;100.00;100266.41;105739;1257;61196;-58
2023/03/03 05:31:40;;;;;;;15.20;8.90;;;;;;;2.80;100.00;100266.81;105719;1259;76441;-55
2023/03/03 05:34:11;;;;;;;14.50;8.10;;;;;;;2.87;100.00;100264.78;105642;1257;69154;-56
2023/03/03 05:36:40;;;;;;;17.80;8.70;;;;;;;2.95;100.00;100266.80;105673;1257;74088;-56
2023/03/03 05:39:10;;;;;;;16.20;8.70;;;;;;;3.02;100.00;100269.45;105526;1259;61234;-57
2023/03/03 05:41:39;;;;;;;12.30;7.70;;;;;;;3.08;100.00;100268.25;105762;1256;61225;-56
2023/03/03 05:44:10;;;;;;;16.40;8.90;;;;;;;3.14;100.00;100267.54;105657;1256;75926;-56
2023/03/03 05:46:41;;;;;;;15.60;8.80;;;;;;;3.21;100.00;100268.38;105749;1259;68661;-54
2023/03/03 05:49:10;;;;;;;13.70;8.10;;;;;;;3.22;100.00;100263.48;105492;1259;72649;-57
2023/03/03 05:51:39;;;;;;;16.30;9.10;;;;;;;3.20;100.00;100265.70;105615;1259;61359;-56
2023/03/03 05:54:08;;;;;;;17.00;9.20;;;;;;;3.18;100.00;100264.98;105617;1259;61108;-57
2023/03/03 05:56:36;;;;;;;15.80;8.20;;;;;;;3.12;100.00;100262.71;105964;1259;76235;-57
2023/03/03 05:59:06;;;;;;;13.80;8.00;;;;;;;3.04;100.00;100263.27;105535;1259;67446;-59
2023/03/03 06:01:36;;;;;;;13.00;8.00;;;;;;;2.97;100.00;100260.48;105753;1257;73981;-57
2023/03/03 06:04:04;;;;;;;14.20;7.50;;;;;;;2.89;100.00;100265.26;105734;1259;61180;-56
2023/03/03 06:06:33;;;;;;;15.00;7.30;;;;;;;2.85;100.00;100265.27;105558;1258;61154;-56
2023/03/03 06:09:02;;;;;;;15.00;7.30;;;;;;;2.82;100.00;100267.63;105844;1255;75873;-59
2023/03/03 06:11:34;;;;;;;18.30;9.30;;;;;;;2.80;100.00;100264.23;105643;1259;67598;-56
2023/03/03 06:14:05;;;;;;;14.80;7.60;;;;;;;2.79;100.00;100262.58;105505;1257;74165;-56
2023/03/03 06:16:33;;;;;;;13.50;7.20;;;;;;;2.80;100.00;100265.77;105594;1255;61224;-55
2023/03/03 06:19:02;;;;;;;14.70;8.50;;;;;;;2.79;100.00;100266.66;105483;1259;61813;-56
2023/03/03 06:21:31;;;;;;;15.90;8.00;;;;;;;2.77;100.00;100267.21;105796;1255;74397;-54
2023/03/03 06:23:59;;;;;;;15.50;8.40;;;;;;;2.76;100.00;100266.94;105647;1256;68632;-55
2023/03/03 06:26:30;;;;;;;15.50;8.50;;;;;;;2.73;100.00;100265.14;105996;1256;73048;-60
2023/03/03 06:28:59;;;;;;;13.30;7.60;;;;;;;2.66;100.00;100261.38;105488;1259;61295;-55
2023/03/03 06:31:27;;;;;;;14.20;7.70;;;;;;;2.63;100.00;100254.31;105756;1256;61138;-55
2023/03/03 06:33:56;;;;;;;15.40;8.00;;;;;;;2.63;100.00;100250.84;105756;1254;76581;-56
2023/03/03 06:36:27;;;;;;;16.20;8.00;;;;;;;2.72;100.00;100246.55;105758;1259;67527;-57
2023/03/03 06:38:56;;;;;;;15.60;8.10;;;;;;;2.84;100.00;100240.37;105667;1260;74681;-58
2023/03/03 06:41:25;;;;;;;13.80;7.70;;;;;;;2.96;100.00;100239.75;105712;1256;61219;-57
2023/03/03 06:43:53;;;;;;;16.30;8.40;;;;;;;3.08;100.00;100240.06;105625;1256;61231;-56
2023/03/03 06:46:22;;;;;;;15.30;7.90;;;;;;;3.27;100.00;100235.55;105643;1259;76221;-57
2023/03/03 06:48:51;;;;;;;17.20;8.90;;;;;;;3.62;100.00;100237.02;105709;1257;68977;-58
2023/03/03 06:51:30;;;;;;;15.50;9.10;;;;;;;4.01;100.00;100228.74;105645;1256;73828;-57
2023/03/03 06:54:14;;;;;;;13.20;8.40;;;;;;;4.29;100.00;100227.59;105226;1257;61350;-58
2023/03/03 06:56:44;;;;;;;16.50;8.40;;;;;;;4.51;100.00;100228.49;105576;1257;61847;-57
2023/03/03 06:59:17;;;;;;;17.20;9.10;;;;;;;4.78;100.00;100224.70;105539;1255;75191;-56
2023/03/03 07:01:49;;;;;;;13.30;8.40;;;;;;;4.99;100.00;100225.60;105570;1257;67444;-57
2023/03/03 07:04:24;;;;;;;;;;;;;;;5.13;100.00;100223.25;105774;1259;73683;-59
2023/03/03 07:06:54;;;;;;;15.70;8.60;;;;;;;5.27;100.00;100217.02;105691;1259;61256;-55
2023/03/03 07:09:25;;;;;;;14.70;8.00;;;;;;;5.42;100.00;100216.40;105551;1259;61177;-55
2023/03/03 07:12:18;;;;;;;15.60;8.50;;;;;;;5.61;100.00;100219.58;105336;1255;75195;-56
2023/03/03 07:14:54;;;;;;;16.70;8.90;;;;;;;5.78;100.00;100216.99;105450;1256;68727;-56
2023/03/03 07:17:24;;;;;;;16.00;8.70;;;;;;;5.90;100.00;100214.84;105350;1259;73218;-59
2023/03/03 07:19:52;;;;;;;16.00;9.40;;;;;;;5.93;100.00;100212.29;105553;1257;61349;-56
2023/03/03 07:22:24;;;;;;;15.90;8.60;;;;;;;5.89;100.00;100212.66;105611;1257;61145;-56
2023/03/03 07:24:53;;;;;;;16.60;8.90;;;;;;;5.88;100.00;100208.13;105601;1256;75149;-55
2023/03/03 07:27:24;;;;;;;16.00;8.30;;;;;;;5.91;100.00;100207.44;105811;1259;67643;-55
2023/03/03 07:29:53;;;;;;;16.70;9.00;;;;;;;5.91;100.00;100205.52;105460;1256;73703;-57
2023/03/03 07:32:47;;;;;;;17.60;9.40;;;;;;;5.89;100.00;100202.45;105397;1255;61218;-57
2023/03/03 07:35:21;;;;;;;18.00;8.00;;;;;;;5.81;100.00;100198.29;105339;1258;61356;-56
2023/03/03 07:37:50;;;;;;;14.50;7.90;;;;;;;5.68;100.00;100201.16;105490;1258;76286;-54
2023/03/03 07:40:36;;;;;;;13.20;7.50;;;;;;;5.57;100.00;100204.42;105448;1256;68385;-55
2023/03/03 07:43:29;;;;;;;16.00;7.70;;;;;;;5.51;100.00;100204.67;105452;1259;72197;-55
2023/03/03 07:46:41;;;;;;;17.20;9.10;;;;;;;5.59;100.00;100198.67;105306;1256;61091;-57
2023/03/03 07:49:33;;;;;;;14.10;7.60;;;;;;;5.74;100.00;100192.05;105548;1256;61958;-56
2023/03/03 07:52:25;;;;;;;15.90;7.70;;;;;;;5.88;100.00;100186.83;105700;1257;75271;-54
2023/03/03 07:54:59;;;;;;;12.70;7.40;;;;;;;6.06;100.00;100182.33;105348;1257;68603;-56
2023/03/03 07:57:32;;;;;;;13.60;7.60;;;;;;;6.30;100.00;100175.41;105417;1257;72735;-56
2023/03/03 08:00:13;;;;;;;12.90;7.60;;;;;;;6.50;100.00;100176.92;105684;1259;61301;-55
2023/03/03 08:02:51;;;;;;;13.80;7.10;;;;;;;6.81;100.00;100178.20;105453;1259;61107;-56
2023/03/03 08:05:36;;;;;;;13.10;6.90;;;;;;;7.21;100.00;100169.20;105680;1256;76777;-56
2023/03/03 08:08:28;;;;;;;12.60;6.90;;;;;;;7.66;100.00;100165.73;105958;1259;68693;-57
2023/03/03 08:10:58;;;;;;;14.10;6.40;;;;;;;8.29;100.00;100163.13;105744;1257;73889;-56
2023/03/03 08:13:39;;;;;;;10.90;6.70;;;;;;;8.70;100.00;100158.89;105530;1259;61368;-57
2023/03/03 08:16:10;;;;;;;12.90;7.00;;;;;;;8.97;100.00;100155.66;105467;1261;61397;-59
2023/03/03 08:18:41;;;;;;;14.90;7.00;;;;;;;9.07;100.00;100152.95;105676;1256;76255;-56
2023/03/03 08:21:20;;;;;;;12.50;6.80;;;;;;;9.18;100.00;100149.24;105783;1256;68650;-57
2023/03/03 08:23:50;;;;;;;10.20;6.30;;;;;;;9.41;100.00;100151.70;105908;1256;74231;-56
2023/03/03 08:26:19;;;;;;;10.80;6.30;;;;;;;9.71;100.00;100143.08;105557;1258;61448;-56
2023/03/03 08:28:49;;;;;;;10.80;6.20;;;;;;;9.90;100.00;100135.68;105564;1259;62199;-56
2023/03/03 08:31:21;;;;;;;10.10;5.80;;;;;;;9.88;100.00;100125.20;105551;1257;75371;-59
2023/03/03 08:34:08;;;;;;;12.60;5.90;;;;;;;9.67;100.00;100128.10;105575;1259;68111;-57
2023/03/03 08:36:41;;;;;;;10.30;6.20;;;;;;;9.48;100.00;100127.27;105122;1256;347321;-56
2023/03/03 08:39:10;;;;;;;10.90;7.10;;;;;;;9.42;100.00;100122.90;105307;1256;61387;-59
2023/03/03 08:41:42;;;;;;;10.90;6.40;;;;;;;9.47;100.00;100122.52;105531;1259;61317;-56
2023/03/03 08:44:11;;;;;;;12.00;6.60;;;;;;;9.53;100.00;100122.15;105641;1256;76353;-54
2023/03/03 08:46:39;;;;;;;9.60;6.30;;;;;;;9.48;100.00;100117.15;105474;1257;67575;-55
2023/03/03 08:49:10;;;;;;;10.40;7.10;;;;;;;9.30;100.00;100112.49;105494;1257;73668;-58
2023/03/03 08:51:39;;;;;;;10.40;6.80;;;;;;;9.27;100.00;100107.33;105486;1259;61372;-56
2023/03/03 08:54:07;;;;;;;10.90;7.00;;;;;;;9.54;100.00;100104.52;105562;1257;62031;-56
2023/03/03 08:56:36;;;;;;;11.00;7.00;;;;;;;9.96;100.00;100097.29;105591;1254;75899;-56
2023/03/03 08:59:05;;;;;;;11.20;6.40;;;;;;;10.38;100.00;100090.02;105391;1259;68582;-57
2023/03/03 09:01:38;;;;;;;11.90;5.50;;;;;;;10.72;100.00;100087.30;105559;1256;74417;-57
2023/03/03 09:04:07;;;;;;;9.50;5.50;;;;;;;11.00;100.00;100082.94;105458;1257;61939;-56
2023/03/03 09:06:36;;;;;;;12.00;6.20;;;;;;;11.08;100.00;100085.29;105634;1259;61234;-55
2023/03/03 09:09:06;;;;;;;9.50;5.90;;;;;;;11.12;100.00;100082.08;105654;1254;76419;-56
2023/03/03 09:11:35;;;;;;;9.10;5.80;;;;;;;11.23;100.00;100077.80;105502;1259;68766;-56
2023/03/03 09:14:11;;;;;;;10.10;6.00;;;;;;;11.36;100.00;100076.60;105402;1259;71971;-56
2023/03/03 09:16:42;;;;;;;9.90;5.80;;;;;;;11.47;99.84;100072.75;105497;1259;61926;-58
2023/03/03 09:19:20;;;;;;;8.80;5.90;;;;;;;11.62;99.78;100073.83;105584;1257;61356;-57
2023/03/03 09:21:53;;;;;;;10.30;6.20;;;;;;;11.72;97.95;100072.39;105618;1259;76085;-56
2023/03/03 09:24:31;;;;;;;10.70;6.80;;;;;;;11.58;95.49;100073.73;105334;1256;68725;-58
2023/03/03 09:27:01;;;;;;;9.80;6.90;;;;;;;11.29;97.32;100075.14;105186;1262;74227;-56
2023/03/03 09:29:36;;;;;;;11.50;7.00;;;;;;;11.04;98.30;100072.78;105334;1257;62114;-56
2023/03/03 09:32:41;;;;;;;9.70;6.50;;;;;;;10.70;99.80;100073.73;105569;1257;60821;-58
2023/03/03 09:35:37;;;;;;;10.20;7.40;;;;;;;10.27;100.00;100073.23;105418;1254;75361;-57
2023/03/03 09:38:21;;;;;;;10.50;6.90;;;;;;;9.96;100.00;100072.26;105379;1257;67510;-56
2023/03/03 09:41:12;;;;;;;8.30;6.30;;;;;;;10.00;100.00;100065.23;105206;1257;73534;-56
2023/03/03 09:43:50;;;;;;;12.00;6.40;;;;;;;10.16;100.00;100062.45;105297;1257;61431;-55
2023/03/03 09:46:28;;;;;;;10.30;6.70;;;;;;;10.27;100.00;100055.25;105288;1256;61445;-57
2023/03/03 09:48:58;;;;;;;9.40;5.70;;;;;;;10.26;100.00;100044.38;105816;1257;76134;-57
2023/03/03 09:52:05;;;;;;;10.00;6.10;;;;;;;10.19;100.00;100043.93;105240;1259;69541;-56
2023/03/03 09:54:37;;;;;;;9.80;6.70;;;;;;;10.37;100.00;100037.14;105672;1256;73954;-57
2023/03/03 09:57:18;;;;;;;8.80;5.60;;;;;;;10.60;100.00;100031.86;105458;1259;61263;-56
2023/03/03 10:00:03;;;;;;;11.30;5.90;;;;;;;10.85;100.00;100029.20;105442;1259;61649;-57
2023/03/03 10:02:50;;;;;;;8.80;5.80;;;;;;;11.02;99.78;100023.62;105391;1257;75171;-56
2023/03/03 10:05:39;;;;;;;11.00;6.40;;;;;;;10.99;99.16;100018.39;105123;1260;68273;-56
2023/03/03 10:08:35;;;;;;;7.50;5.10;;;;;;;10.93;96.22;100014.09;105422;1257;73859;-57
2023/03/03 10:11:31;;;;;;;9.10;5.80;;;;;;;11.13;98.70;100009.98;105648;1256;61254;-58
2023/03/03 10:14:00;;;;;;;10.30;6.40;;;;;;;11.51;93.47;100009.70;105180;1258;61670;-56
2023/03/03 10:17:01;;;;;;;9.90;5.90;;;;;;;11.78;91.76;100009.83;105038;1260;75743;-58
2023/03/03 10:19:32;;;;;;;10.90;6.10;;;;;;;12.04;85.47;100008.73;105550;1256;68601;-56
2023/03/03 10:22:01;;;;;;;;;;;;;;;12.06;82.12;100001.31;105301;1257;72697;-56
2023/03/03 10:24:33;;;;;;;8.70;5.60;;;;;;;11.89;77.71;99996.94;105213;1256;62145;-56
2023/03/03 10:27:04;;;;;;;7.80;5.80;;;;;;;11.68;81.36;99996.85;105372;1256;61838;-55
2023/03/03 10:29:58;;;;;;;10.40;6.70;;;;;;;11.54;80.30;99995.80;105390;1261;74929;-56
2023/03/03 10:32:38;;;;;;;9.10;6.10;;;;;;;11.32;84.24;99995.11;105227;1257;67822;-55
2023/03/03 10:35:40;;;;;;;11.10;6.10;;;;;;;11.05;87.02;99993.69;105344;1256;73229;-56
2023/03/03 10:38:33;;;;;;;8.90;5.70;;;;;;;10.64;83.99;99985.70;105426;1262;61203;-56
2023/03/03 10:41:26;;;;;;;6.50;4.60;;;;;;;10.37;87.34;99983.48;105524;1256;61911;-57
2023/03/03 10:44:24;;;;;;;8.10;5.10;;;;;;;10.23;89.85;99978.73;105541;1260;75934;-56
2023/03/03 10:46:53;;;;;;;8.10;4.80;;;;;;;10.18;92.95;99977.07;105350;1259;68670;-56
2023/03/03 10:49:28;;;;;;;7.90;5.00;;;;;;;10.12;89.74;99976.76;105610;1257;74537;-56
2023/03/03 10:52:03;;;;;;;8.50;5.20;;;;;;;9.98;90.21;99975.86;105181;1260;61330;-55
2023/03/03 10:55:03;;;;;;;9.10;5.70;;;;;;;9.94;95.43;99971.69;105401;1260;61617;-56
2023/03/03 10:57:37;;;;;;;7.90;5.10;;;;;;;10.18;99.15;99966.02;105399;1256;75159;-57
2023/03/03 11:00:21;;;;;;;9.70;6.00;;;;;;;10.54;96.76;99964.69;105364;1256;67738;-56
2023/03/03 11:03:15;;;;;;;10.50;6.90;;;;;;;10.60;91.60;99966.61;105222;1257;73020;-56
2023/03/03 11:05:51;;;;;;;11.70;6.50;;;;;;;10.26;97.03;99968.79;105529;1259;61253;-59
2023/03/03 11:08:42;;;;;;;10.50;7.10;;;;;;;9.95;99.95;99969.33;105336;1262;61196;-55
2023/03/03 11:11:54;;;;;;;13.30;7.20;;;;;;;9.60;100.00;99969.86;105299;1257;75942;-57
2023/03/03 11:14:37;;;;;;;10.50;6.60;;;;;;;9.23;100.00;99972.19;105559;1256;67882;-57
2023/03/03 11:17:27;;;;;;;13.00;7.80;;;;;;;8.94;100.00;99970.89;105311;1257;74249;-56
2023/03/03 11:20:08;;;;;;;11.50;6.60;;;;;;;8.68;100.00;99973.60;105223;1256;62030;-56
2023/03/03 11:22:46;;;;;;;12.90;6.50;;;;;;;8.44;100.00;99974.75;105489;1259;61231;-56
2023/03/03 11:25:17;;;;;;;11.60;6.70;;;;;;;8.18;100.00;99976.16;105583;1255;75261;-55
2023/03/03 11:28:16;;;;;;;10.10;6.40;;;;;;;7.84;100.00;99976.58;105229;1256;68667;-55
2023/03/03 11:30:49;;;;;;;9.80;6.40;;;;;;;7.53;100.00;99974.14;105530;1257;72858;-56
2023/03/03 11:33:19;;;;;;;13.50;8.00;;;;;;;7.39;100.00;99970.56;105322;1261;61244;-56
2023/03/03 11:35:51;;;;;;;11.50;7.20;;;;;;;7.31;100.00;99972.04;105313;1256;61748;-58
2023/03/03 11:38:33;;;;;;;8.70;5.70;;;;;;;7.26;100.00;99969.67;105510;1259;76242;-55
2023/03/03 11:41:07;;;;;;;8.20;5.90;;;;;;;7.16;100.00;99969.48;105499;1259;69365;-58
2023/03/03 11:43:51;;;;;;;8.50;5.80;;;;;;;7.01;100.00;99968.40;105109;1261;74613;-56